sensor_id;sensor_type;location;lat;lon;timestamp;pressure;altitude;pressure_sealevel;temperature;humidity
24154;BME280;12312;53.362;-1.518;2022-10-26T00:00:47;98261.69;;;11.56;100.00
24154;BME280;12312;53.362;-1.518;2022-10-26T00:03:13;98253.00;;;11.54;100.00
24154;BME280;12312;53.362;-1.518;2022-10-26T00:05:38;98262.66;;;11.55;100.00
24154;BME280;12312;53.362;-1.518;2022-10-26T00:08:04;98247.97;;;11.51;100.00
24154;BME280;12312;53.362;-1.518;2022-10-26T00:10:33;98254.25;;;11.50;100.00
24154;BME280;12312;53.362;-1.518;2022-10-26T00:12:58;98239.41;;;11.67;100.00
24154;BME280;12312;53.362;-1.518;2022-10-26T00:15:24;98245.25;;;11.61;100.00
24154;BME280;12312;53.362;-1.518;2022-10-26T00:17:49;98232.94;;;11.50;100.00
24154;BME280;12312;53.362;-1.518;2022-10-26T00:20:15;98234.91;;;11.48;100.00
24154;BME280;12312;53.362;-1.518;2022-10-26T00:22:41;98233.22;;;11.57;100.00
24154;BME280;12312;53.362;-1.518;2022-10-26T00:25:06;98231.81;;;11.53;100.00
24154;BME280;12312;53.362;-1.518;2022-10-26T00:27:33;98229.03;;;11.64;100.00
24154;BME280;12312;53.362;-1.518;2022-10-26T00:30:04;98222.41;;;11.58;100.00
24154;BME280;12312;53.362;-1.518;2022-10-26T00:32:30;98218.50;;;11.62;100.00
24154;BME280;12312;53.362;-1.518;2022-10-26T00:34:56;98205.03;;;11.73;100.00
24154;BME280;12312;53.362;-1.518;2022-10-26T00:37:21;98208.13;;;11.78;100.00
24154;BME280;12312;53.362;-1.518;2022-10-26T00:39:47;98205.03;;;11.73;100.00
24154;BME280;12312;53.362;-1.518;2022-10-26T00:42:17;98198.59;;;11.66;100.00
24154;BME280;12312;53.362;-1.518;2022-10-26T00:47:29;98184.81;;;11.61;100.00
24154;BME280;12312;53.362;-1.518;2022-10-26T00:49:58;98185.13;;;11.68;100.00
24154;BME280;12312;53.362;-1.518;2022-10-26T00:52:26;98186.53;;;11.72;100.00
24154;BME280;12312;53.362;-1.518;2022-10-26T00:54:53;98171.97;;;11.66;100.00
24154;BME280;12312;53.362;-1.518;2022-10-26T00:57:19;98174.63;;;11.66;100.00
24154;BME280;12312;53.362;-1.518;2022-10-26T00:59:46;98178.94;;;11.77;100.00
24154;BME280;12312;53.362;-1.518;2022-10-26T01:02:12;98169.38;;;11.74;100.00
24154;BME280;12312;53.362;-1.518;2022-10-26T01:04:39;98167.72;;;11.64;100.00
24154;BME280;12312;53.362;-1.518;2022-10-26T01:07:05;98159.31;;;11.59;100.00
24154;BME280;12312;53.362;-1.518;2022-10-26T01:09:32;98157.47;;;11.59;100.00
24154;BME280;12312;53.362;-1.518;2022-10-26T01:11:58;98160.41;;;11.56;100.00
24154;BME280;12312;53.362;-1.518;2022-10-26T01:14:26;98154.25;;;11.65;100.00
24154;BME280;12312;53.362;-1.518;2022-10-26T01:26:05;98152.72;;;11.72;100.00
24154;BME280;12312;53.362;-1.518;2022-10-26T01:31:26;98147.38;;;11.82;100.00
24154;BME280;12312;53.362;-1.518;2022-10-26T01:34:02;98144.72;;;11.82;100.00
24154;BME280;12312;53.362;-1.518;2022-10-26T01:36:42;98141.91;;;11.83;100.00
24154;BME280;12312;53.362;-1.518;2022-10-26T01:39:20;98129.97;;;11.78;100.00
24154;BME280;12312;53.362;-1.518;2022-10-26T01:41:49;98117.38;;;11.70;100.00
24154;BME280;12312;53.362;-1.518;2022-10-26T01:44:22;98121.38;;;11.84;100.00
24154;BME280;12312;53.362;-1.518;2022-10-26T01:46:52;98116.63;;;11.78;100.00
24154;BME280;12312;53.362;-1.518;2022-10-26T01:49:25;98114.97;;;11.77;100.00
24154;BME280;12312;53.362;-1.518;2022-10-26T01:51:53;98107.94;;;11.76;100.00
24154;BME280;12312;53.362;-1.518;2022-10-26T01:54:19;98105.84;;;11.79;100.00
24154;BME280;12312;53.362;-1.518;2022-10-26T01:56:49;98112.16;;;11.78;100.00
24154;BME280;12312;53.362;-1.518;2022-10-26T02:13:32;98082.06;;;11.95;100.00
24154;BME280;12312;53.362;-1.518;2022-10-26T02:16:20;98085.41;;;11.97;100.00
24154;BME280;12312;53.362;-1.518;2022-10-26T02:21:28;98071.84;;;11.91;100.00
24154;BME280;12312;53.362;-1.518;2022-10-26T02:23:57;98090.22;;;11.94;100.00
24154;BME280;12312;53.362;-1.518;2022-10-26T02:26:27;98084.53;;;12.06;100.00
24154;BME280;12312;53.362;-1.518;2022-10-26T02:29:02;98076.19;;;11.92;100.00
24154;BME280;12312;53.362;-1.518;2022-10-26T02:31:29;98079.41;;;11.95;100.00
24154;BME280;12312;53.362;-1.518;2022-10-26T02:33:58;98068.75;;;11.95;100.00
24154;BME280;12312;53.362;-1.518;2022-10-26T02:36:28;98063.47;;;12.03;100.00
24154;BME280;12312;53.362;-1.518;2022-10-26T02:38:56;98070.13;;;11.99;100.00
24154;BME280;12312;53.362;-1.518;2022-10-26T02:41:24;98064.88;;;12.07;100.00
24154;BME280;12312;53.362;-1.518;2022-10-26T02:44:13;98059.28;;;12.01;100.00
24154;BME280;12312;53.362;-1.518;2022-10-26T02:46:41;98058.22;;;11.94;100.00
24154;BME280;12312;53.362;-1.518;2022-10-26T02:49:08;98055.34;;;12.05;100.00
24154;BME280;12312;53.362;-1.518;2022-10-26T02:51:55;98052.44;;;11.98;100.00
24154;BME280;12312;53.362;-1.518;2022-10-26T02:54:48;98055.09;;;11.98;100.00
24154;BME280;12312;53.362;-1.518;2022-10-26T02:57:19;98056.59;;;12.10;100.00
24154;BME280;12312;53.362;-1.518;2022-10-26T02:59:48;98047.59;;;12.11;100.00
24154;BME280;12312;53.362;-1.518;2022-10-26T03:02:18;98049.84;;;12.06;100.00
24154;BME280;12312;53.362;-1.518;2022-10-26T03:04:44;98041.56;;;12.09;100.00
24154;BME280;12312;53.362;-1.518;2022-10-26T03:07:21;98038.81;;;12.01;100.00
24154;BME280;12312;53.362;-1.518;2022-10-26T03:09:48;98034.56;;;12.08;100.00
24154;BME280;12312;53.362;-1.518;2022-10-26T03:12:14;98030.06;;;12.09;100.00
24154;BME280;12312;53.362;-1.518;2022-10-26T03:14:40;98026.66;;;12.16;100.00
24154;BME280;12312;53.362;-1.518;2022-10-26T03:17:06;98030.88;;;12.09;100.00
24154;BME280;12312;53.362;-1.518;2022-10-26T03:19:31;98023.44;;;12.13;100.00
24154;BME280;12312;53.362;-1.518;2022-10-26T03:21:57;98023.84;;;12.18;100.00
24154;BME280;12312;53.362;-1.518;2022-10-26T03:24:22;98025.66;;;12.17;100.00
24154;BME280;12312;53.362;-1.518;2022-10-26T03:26:48;98023.59;;;12.11;100.00
24154;BME280;12312;53.362;-1.518;2022-10-26T03:29:14;98017.19;;;12.22;100.00
24154;BME280;12312;53.362;-1.518;2022-10-26T03:31:40;98017.03;;;12.23;100.00
24154;BME280;12312;53.362;-1.518;2022-10-26T03:34:05;98021.53;;;12.23;100.00
24154;BME280;12312;53.362;-1.518;2022-10-26T03:36:31;98029.09;;;12.27;100.00
24154;BME280;12312;53.362;-1.518;2022-10-26T03:38:58;98017.59;;;12.27;100.00
24154;BME280;12312;53.362;-1.518;2022-10-26T03:41:23;98026.13;;;12.30;100.00
24154;BME280;12312;53.362;-1.518;2022-10-26T03:43:49;98018.50;;;12.35;100.00
24154;BME280;12312;53.362;-1.518;2022-10-26T03:46:15;98019.50;;;12.34;100.00
24154;BME280;12312;53.362;-1.518;2022-10-26T03:48:40;98025.22;;;12.39;100.00
24154;BME280;12312;53.362;-1.518;2022-10-26T03:51:06;98020.19;;;12.36;100.00
24154;BME280;12312;53.362;-1.518;2022-10-26T03:53:31;98017.28;;;12.47;100.00
24154;BME280;12312;53.362;-1.518;2022-10-26T03:55:57;98024.63;;;12.45;100.00
24154;BME280;12312;53.362;-1.518;2022-10-26T03:58:22;98019.44;;;12.44;100.00
24154;BME280;12312;53.362;-1.518;2022-10-26T04:00:48;98020.25;;;12.44;100.00
24154;BME280;12312;53.362;-1.518;2022-10-26T04:03:13;98007.78;;;12.45;100.00
24154;BME280;12312;53.362;-1.518;2022-10-26T04:05:39;98000.00;;;12.51;100.00
24154;BME280;12312;53.362;-1.518;2022-10-26T04:08:05;98009.88;;;12.41;100.00
24154;BME280;12312;53.362;-1.518;2022-10-26T04:10:30;98007.84;;;12.53;100.00
24154;BME280;12312;53.362;-1.518;2022-10-26T04:12:59;97995.59;;;12.42;100.00
24154;BME280;12312;53.362;-1.518;2022-10-26T04:15:26;98006.91;;;12.44;100.00
24154;BME280;12312;53.362;-1.518;2022-10-26T04:17:56;97997.94;;;12.45;100.00
24154;BME280;12312;53.362;-1.518;2022-10-26T04:20:23;97998.91;;;12.44;100.00
24154;BME280;12312;53.362;-1.518;2022-10-26T04:22:58;97994.34;;;12.54;100.00
24154;BME280;12312;53.362;-1.518;2022-10-26T04:25:24;97987.00;;;12.56;100.00
24154;BME280;12312;53.362;-1.518;2022-10-26T04:27:50;97984.28;;;12.48;100.00
24154;BME280;12312;53.362;-1.518;2022-10-26T04:30:16;97981.22;;;12.43;100.00
24154;BME280;12312;53.362;-1.518;2022-10-26T04:32:41;97979.88;;;12.39;100.00
24154;BME280;12312;53.362;-1.518;2022-10-26T04:35:07;97990.00;;;12.53;100.00
24154;BME280;12312;53.362;-1.518;2022-10-26T04:37:33;97989.16;;;12.53;100.00
24154;BME280;12312;53.362;-1.518;2022-10-26T04:39:58;97984.00;;;12.51;100.00
24154;BME280;12312;53.362;-1.518;2022-10-26T04:42:24;97981.97;;;12.53;100.00
24154;BME280;12312;53.362;-1.518;2022-10-26T04:44:50;97990.28;;;12.50;100.00
24154;BME280;12312;53.362;-1.518;2022-10-26T04:47:16;97988.09;;;12.64;100.00
24154;BME280;12312;53.362;-1.518;2022-10-26T04:49:42;97996.56;;;12.59;100.00
24154;BME280;12312;53.362;-1.518;2022-10-26T04:52:07;97998.06;;;12.62;100.00
24154;BME280;12312;53.362;-1.518;2022-10-26T04:54:33;98000.66;;;12.53;100.00
24154;BME280;12312;53.362;-1.518;2022-10-26T04:56:58;97999.38;;;12.57;100.00
24154;BME280;12312;53.362;-1.518;2022-10-26T04:59:24;98005.22;;;12.61;100.00
24154;BME280;12312;53.362;-1.518;2022-10-26T05:01:50;97997.03;;;12.54;100.00
24154;BME280;12312;53.362;-1.518;2022-10-26T05:04:15;97998.47;;;12.67;100.00
24154;BME280;12312;53.362;-1.518;2022-10-26T05:06:41;97991.53;;;12.56;100.00
24154;BME280;12312;53.362;-1.518;2022-10-26T05:09:07;97988.09;;;12.64;100.00
24154;BME280;12312;53.362;-1.518;2022-10-26T05:11:33;97993.44;;;12.64;100.00
24154;BME280;12312;53.362;-1.518;2022-10-26T05:13:58;97988.09;;;12.64;100.00
24154;BME280;12312;53.362;-1.518;2022-10-26T05:16:24;97989.22;;;12.61;100.00
24154;BME280;12312;53.362;-1.518;2022-10-26T05:18:50;97989.22;;;12.79;100.00
24154;BME280;12312;53.362;-1.518;2022-10-26T05:21:16;97999.22;;;12.59;100.00
24154;BME280;12312;53.362;-1.518;2022-10-26T05:23:48;98005.47;;;12.68;100.00
24154;BME280;12312;53.362;-1.518;2022-10-26T05:26:16;98003.09;;;12.65;100.00
24154;BME280;12312;53.362;-1.518;2022-10-26T05:28:42;98008.22;;;12.76;100.00
24154;BME280;12312;53.362;-1.518;2022-10-26T05:31:08;98010.97;;;12.84;100.00
24154;BME280;12312;53.362;-1.518;2022-10-26T05:33:33;98015.69;;;12.90;100.00
24154;BME280;12312;53.362;-1.518;2022-10-26T05:35:59;98018.34;;;12.90;100.00
24154;BME280;12312;53.362;-1.518;2022-10-26T05:38:24;98018.88;;;13.36;100.00
24154;BME280;12312;53.362;-1.518;2022-10-26T05:40:52;98008.97;;;13.29;100.00
24154;BME280;12312;53.362;-1.518;2022-10-26T05:43:19;98009.06;;;13.19;100.00
24154;BME280;12312;53.362;-1.518;2022-10-26T05:45:45;98018.19;;;13.09;100.00
24154;BME280;12312;53.362;-1.518;2022-10-26T05:48:11;98029.56;;;13.11;100.00
24154;BME280;12312;53.362;-1.518;2022-10-26T05:50:39;98019.03;;;13.09;100.00
24154;BME280;12312;53.362;-1.518;2022-10-26T05:53:05;98025.50;;;13.07;100.00
24154;BME280;12312;53.362;-1.518;2022-10-26T05:55:31;98021.53;;;13.11;100.00
24154;BME280;12312;53.362;-1.518;2022-10-26T05:57:57;98017.19;;;13.10;100.00
24154;BME280;12312;53.362;-1.518;2022-10-26T06:00:26;98012.84;;;13.09;100.00
24154;BME280;12312;53.362;-1.518;2022-10-26T06:03:21;98036.66;;;13.02;100.00
24154;BME280;12312;53.362;-1.518;2022-10-26T06:05:55;98027.50;;;13.05;100.00
24154;BME280;12312;53.362;-1.518;2022-10-26T06:08:23;98039.25;;;12.94;100.00
24154;BME280;12312;53.362;-1.518;2022-10-26T06:10:50;98036.44;;;12.96;100.00
24154;BME280;12312;53.362;-1.518;2022-10-26T06:13:16;98051.88;;;13.02;100.00
24154;BME280;12312;53.362;-1.518;2022-10-26T06:18:49;98049.38;;;13.08;100.00
24154;BME280;12312;53.362;-1.518;2022-10-26T06:32:23;98056.63;;;13.16;100.00
24154;BME280;12312;53.362;-1.518;2022-10-26T06:34:52;98053.84;;;13.00;100.00
24154;BME280;12312;53.362;-1.518;2022-10-26T06:37:21;98058.44;;;12.98;100.00
24154;BME280;12312;53.362;-1.518;2022-10-26T06:39:48;98057.72;;;13.05;100.00
24154;BME280;12312;53.362;-1.518;2022-10-26T06:42:14;98052.75;;;12.93;100.00
24154;BME280;12312;53.362;-1.518;2022-10-26T06:44:40;98047.72;;;12.90;100.00
24154;BME280;12312;53.362;-1.518;2022-10-26T06:47:35;98045.59;;;12.76;100.00
24154;BME280;12312;53.362;-1.518;2022-10-26T06:50:22;98045.28;;;12.79;100.00
24154;BME280;12312;53.362;-1.518;2022-10-26T06:55:22;98043.16;;;12.65;100.00
24154;BME280;12312;53.362;-1.518;2022-10-26T06:57:48;98054.38;;;12.68;100.00
24154;BME280;12312;53.362;-1.518;2022-10-26T07:00:16;98053.22;;;12.71;100.00
24154;BME280;12312;53.362;-1.518;2022-10-26T07:02:44;98051.91;;;12.57;100.00
24154;BME280;12312;53.362;-1.518;2022-10-26T07:05:10;98062.69;;;12.65;100.00
24154;BME280;12312;53.362;-1.518;2022-10-26T07:07:42;98080.34;;;12.48;100.00
24154;BME280;12312;53.362;-1.518;2022-10-26T07:10:10;98078.44;;;12.58;100.00
24154;BME280;12312;53.362;-1.518;2022-10-26T07:12:36;98087.91;;;12.53;100.00
24154;BME280;12312;53.362;-1.518;2022-10-26T07:15:04;98092.56;;;12.69;100.00
24154;BME280;12312;53.362;-1.518;2022-10-26T07:17:30;98086.47;;;12.58;100.00
24154;BME280;12312;53.362;-1.518;2022-10-26T07:19:56;98086.56;;;12.67;100.00
24154;BME280;12312;53.362;-1.518;2022-10-26T07:22:22;98078.59;;;12.75;100.00
24154;BME280;12312;53.362;-1.518;2022-10-26T07:24:49;98080.91;;;12.87;100.00
24154;BME280;12312;53.362;-1.518;2022-10-26T07:27:16;98085.09;;;12.90;100.00
24154;BME280;12312;53.362;-1.518;2022-10-26T07:29:44;98089.06;;;12.86;100.00
24154;BME280;12312;53.362;-1.518;2022-10-26T07:32:10;98084.88;;;12.83;100.00
24154;BME280;12312;53.362;-1.518;2022-10-26T07:34:35;98088.75;;;12.89;100.00
24154;BME280;12312;53.362;-1.518;2022-10-26T07:37:01;98091.34;;;12.81;100.00
24154;BME280;12312;53.362;-1.518;2022-10-26T07:39:27;98086.63;;;12.92;100.00
24154;BME280;12312;53.362;-1.518;2022-10-26T07:41:52;98090.44;;;12.90;100.00
24154;BME280;12312;53.362;-1.518;2022-10-26T07:44:18;98097.53;;;12.99;100.00
24154;BME280;12312;53.362;-1.518;2022-10-26T07:46:43;98085.88;;;13.00;100.00
24154;BME280;12312;53.362;-1.518;2022-10-26T07:49:09;98079.47;;;12.93;100.00
24154;BME280;12312;53.362;-1.518;2022-10-26T07:51:35;98064.56;;;12.90;100.00
24154;BME280;12312;53.362;-1.518;2022-10-26T07:54:01;98058.09;;;12.93;100.00
24154;BME280;12312;53.362;-1.518;2022-10-26T07:56:26;98056.63;;;12.98;100.00
24154;BME280;12312;53.362;-1.518;2022-10-26T07:58:53;98046.34;;;12.86;100.00
24154;BME280;12312;53.362;-1.518;2022-10-26T08:01:19;98058.25;;;12.91;100.00
24154;BME280;12312;53.362;-1.518;2022-10-26T08:03:46;98084.19;;;12.99;100.00
24154;BME280;12312;53.362;-1.518;2022-10-26T08:06:12;98078.47;;;13.11;100.00
24154;BME280;12312;53.362;-1.518;2022-10-26T08:08:37;98098.47;;;13.07;100.00
24154;BME280;12312;53.362;-1.518;2022-10-26T08:11:04;98099.00;;;13.11;100.00
24154;BME280;12312;53.362;-1.518;2022-10-26T08:13:31;98099.53;;;13.14;100.00
24154;BME280;12312;53.362;-1.518;2022-10-26T08:16:01;98102.66;;;13.10;100.00
24154;BME280;12312;53.362;-1.518;2022-10-26T08:18:27;98117.00;;;13.09;100.00
24154;BME280;12312;53.362;-1.518;2022-10-26T08:20:53;98129.59;;;13.16;100.00
24154;BME280;12312;53.362;-1.518;2022-10-26T08:23:19;98137.47;;;13.18;100.00
24154;BME280;12312;53.362;-1.518;2022-10-26T08:25:44;98137.63;;;13.16;100.00
24154;BME280;12312;53.362;-1.518;2022-10-26T08:28:10;98136.63;;;13.17;100.00
24154;BME280;12312;53.362;-1.518;2022-10-26T08:30:36;98127.41;;;13.12;100.00
24154;BME280;12312;53.362;-1.518;2022-10-26T08:33:06;98130.97;;;13.20;100.00
24154;BME280;12312;53.362;-1.518;2022-10-26T08:35:32;98147.00;;;13.20;100.00
24154;BME280;12312;53.362;-1.518;2022-10-26T08:38:01;98137.47;;;13.18;100.00
24154;BME280;12312;53.362;-1.518;2022-10-26T08:40:34;98157.53;;;13.22;100.00
24154;BME280;12312;53.362;-1.518;2022-10-26T08:43:12;98156.59;;;13.31;100.00
24154;BME280;12312;53.362;-1.518;2022-10-26T08:45:47;98152.09;;;13.31;100.00
24154;BME280;12312;53.362;-1.518;2022-10-26T08:48:19;98161.63;;;13.34;100.00
24154;BME280;12312;53.362;-1.518;2022-10-26T08:50:54;98146.16;;;13.37;100.00
24154;BME280;12312;53.362;-1.518;2022-10-26T08:53:33;98152.34;;;13.38;100.00
24154;BME280;12312;53.362;-1.518;2022-10-26T08:56:09;98150.72;;;13.45;100.00
24154;BME280;12312;53.362;-1.518;2022-10-26T08:58:42;98155.91;;;13.46;100.00
24154;BME280;12312;53.362;-1.518;2022-10-26T09:01:11;98162.47;;;13.52;100.00
24154;BME280;12312;53.362;-1.518;2022-10-26T09:03:36;98150.78;;;13.53;100.00
24154;BME280;12312;53.362;-1.518;2022-10-26T09:11:44;98165.81;;;13.54;100.00
24154;BME280;12312;53.362;-1.518;2022-10-26T09:14:20;98175.66;;;13.71;100.00
24154;BME280;12312;53.362;-1.518;2022-10-26T09:17:26;98179.03;;;13.73;100.00
24154;BME280;12312;53.362;-1.518;2022-10-26T09:22:50;98173.50;;;14.00;98.97
24154;BME280;12312;53.362;-1.518;2022-10-26T09:25:21;98172.56;;;14.09;99.69
24154;BME280;12312;53.362;-1.518;2022-10-26T09:27:50;98174.66;;;14.23;99.57
24154;BME280;12312;53.362;-1.518;2022-10-26T09:30:20;98184.31;;;14.42;98.17
24154;BME280;12312;53.362;-1.518;2022-10-26T09:32:58;98187.53;;;14.53;98.58
24154;BME280;12312;53.362;-1.518;2022-10-26T09:35:32;98190.63;;;14.74;95.51
24154;BME280;12312;53.362;-1.518;2022-10-26T09:38:15;98203.75;;;14.85;94.37
24154;BME280;12312;53.362;-1.518;2022-10-26T09:46:25;98210.56;;;14.80;92.92
24154;BME280;12312;53.362;-1.518;2022-10-26T09:48:57;98213.28;;;14.88;92.83
24154;BME280;12312;53.362;-1.518;2022-10-26T09:51:25;98230.53;;;14.85;92.93
24154;BME280;12312;53.362;-1.518;2022-10-26T09:53:54;98229.16;;;14.81;92.28
24154;BME280;12312;53.362;-1.518;2022-10-26T09:56:21;98221.47;;;14.86;91.64
24154;BME280;12312;53.362;-1.518;2022-10-26T09:59:02;98218.44;;;14.81;89.94
24154;BME280;12312;53.362;-1.518;2022-10-26T10:01:30;98223.09;;;14.71;90.71
24154;BME280;12312;53.362;-1.518;2022-10-26T10:06:43;98228.78;;;14.68;90.44
24154;BME280;12312;53.362;-1.518;2022-10-26T10:11:40;98228.78;;;14.68;90.45
24154;BME280;12312;53.362;-1.518;2022-10-26T10:14:11;98223.13;;;14.79;90.10
24154;BME280;12312;53.362;-1.518;2022-10-26T10:16:41;98204.72;;;14.76;87.83
24154;BME280;12312;53.362;-1.518;2022-10-26T10:19:36;98227.53;;;14.55;86.73
24154;BME280;12312;53.362;-1.518;2022-10-26T10:24:56;98243.13;;;14.59;84.48
24154;BME280;12312;53.362;-1.518;2022-10-26T10:27:23;98240.28;;;14.61;85.20
24154;BME280;12312;53.362;-1.518;2022-10-26T10:29:54;98233.13;;;14.69;85.24
24154;BME280;12312;53.362;-1.518;2022-10-26T10:32:25;98239.69;;;14.75;85.60
24154;BME280;12312;53.362;-1.518;2022-10-26T10:34:54;98250.59;;;14.81;86.13
24154;BME280;12312;53.362;-1.518;2022-10-26T10:39:50;98263.09;;;15.06;83.14
24154;BME280;12312;53.362;-1.518;2022-10-26T10:42:21;98270.28;;;14.98;82.62
24154;BME280;12312;53.362;-1.518;2022-10-26T10:44:52;98273.13;;;15.04;82.78
24154;BME280;12312;53.362;-1.518;2022-10-26T10:47:25;98272.50;;;15.18;81.92
24154;BME280;12312;53.362;-1.518;2022-10-26T10:49:58;98281.56;;;15.25;81.34
24154;BME280;12312;53.362;-1.518;2022-10-26T10:52:28;98287.34;;;15.38;80.08
24154;BME280;12312;53.362;-1.518;2022-10-26T10:55:09;98277.75;;;15.36;79.40
24154;BME280;12312;53.362;-1.518;2022-10-26T10:58:05;98295.59;;;15.53;78.48
24154;BME280;12312;53.362;-1.518;2022-10-26T11:00:42;98292.06;;;15.60;77.79
24154;BME280;12312;53.362;-1.518;2022-10-26T11:03:22;98282.03;;;15.86;75.33
24154;BME280;12312;53.362;-1.518;2022-10-26T11:06:18;98280.03;;;15.88;75.24
24154;BME280;12312;53.362;-1.518;2022-10-26T11:09:11;98300.81;;;15.78;76.64
24154;BME280;12312;53.362;-1.518;2022-10-26T11:17:04;98297.78;;;15.81;76.24
24154;BME280;12312;53.362;-1.518;2022-10-26T11:19:42;98300.47;;;15.81;75.25
24154;BME280;12312;53.362;-1.518;2022-10-26T11:22:15;98311.25;;;16.06;75.58
24154;BME280;12312;53.362;-1.518;2022-10-26T11:24:49;98306.88;;;16.29;74.63
24154;BME280;12312;53.362;-1.518;2022-10-26T11:27:26;98293.09;;;16.64;71.66
24154;BME280;12312;53.362;-1.518;2022-10-26T11:30:17;98295.09;;;16.70;70.73
24154;BME280;12312;53.362;-1.518;2022-10-26T11:33:32;98300.34;;;17.10;67.87
24154;BME280;12312;53.362;-1.518;2022-10-26T11:36:07;98299.19;;;17.35;67.42
24154;BME280;12312;53.362;-1.518;2022-10-26T11:38:44;98307.41;;;17.41;66.63
24154;BME280;12312;53.362;-1.518;2022-10-26T11:41:18;98312.97;;;18.01;65.39
24154;BME280;12312;53.362;-1.518;2022-10-26T11:43:54;98309.94;;;17.96;62.57
24154;BME280;12312;53.362;-1.518;2022-10-26T11:46:40;98322.94;;;17.93;62.14
24154;BME280;12312;53.362;-1.518;2022-10-26T11:54:55;98329.34;;;18.14;60.90
24154;BME280;12312;53.362;-1.518;2022-10-26T11:57:24;98346.94;;;18.02;61.17
24154;BME280;12312;53.362;-1.518;2022-10-26T11:59:56;98334.63;;;18.08;60.64
24154;BME280;12312;53.362;-1.518;2022-10-26T12:02:27;98345.94;;;17.34;61.83
24154;BME280;12312;53.362;-1.518;2022-10-26T12:05:07;98362.97;;;16.56;63.85
24154;BME280;12312;53.362;-1.518;2022-10-26T12:07:48;98368.63;;;16.04;66.39
24154;BME280;12312;53.362;-1.518;2022-10-26T12:10:32;98361.56;;;16.03;65.78
24154;BME280;12312;53.362;-1.518;2022-10-26T12:13:23;98380.72;;;16.25;67.53
24154;BME280;12312;53.362;-1.518;2022-10-26T12:16:12;98376.84;;;16.27;65.18
24154;BME280;12312;53.362;-1.518;2022-10-26T12:18:51;98378.41;;;16.54;64.43
24154;BME280;12312;53.362;-1.518;2022-10-26T12:21:20;98384.03;;;17.15;62.81
24154;BME280;12312;53.362;-1.518;2022-10-26T12:24:23;98376.19;;;18.28;59.73
24154;BME280;12312;53.362;-1.518;2022-10-26T12:26:58;98377.72;;;18.53;57.85
24154;BME280;12312;53.362;-1.518;2022-10-26T12:29:27;98371.97;;;18.33;57.91
24154;BME280;12312;53.362;-1.518;2022-10-26T12:31:54;98379.50;;;18.15;58.37
24154;BME280;12312;53.362;-1.518;2022-10-26T12:34:55;98394.25;;;18.27;58.62
24154;BME280;12312;53.362;-1.518;2022-10-26T12:37:31;98393.84;;;18.38;58.07
24154;BME280;12312;53.362;-1.518;2022-10-26T12:45:41;98404.84;;;18.74;57.49
24154;BME280;12312;53.362;-1.518;2022-10-26T12:48:38;98398.66;;;18.20;59.03
24154;BME280;12312;53.362;-1.518;2022-10-26T12:56:19;98398.31;;;18.46;57.20
24154;BME280;12312;53.362;-1.518;2022-10-26T12:59:11;98418.41;;;18.35;58.37
24154;BME280;12312;53.362;-1.518;2022-10-26T13:07:25;98421.84;;;16.97;61.33
24154;BME280;12312;53.362;-1.518;2022-10-26T13:12:54;98410.97;;;16.67;62.66
24154;BME280;12312;53.362;-1.518;2022-10-26T13:15:52;98411.44;;;16.30;63.18
24154;BME280;12312;53.362;-1.518;2022-10-26T13:18:20;98430.75;;;16.42;63.22
24154;BME280;12312;53.362;-1.518;2022-10-26T13:21:09;98451.78;;;16.46;63.48
24154;BME280;12312;53.362;-1.518;2022-10-26T13:23:57;98446.03;;;16.41;64.50
24154;BME280;12312;53.362;-1.518;2022-10-26T13:26:28;98453.72;;;16.28;65.18
24154;BME280;12312;53.362;-1.518;2022-10-26T13:29:03;98462.97;;;16.34;64.64
24154;BME280;12312;53.362;-1.518;2022-10-26T13:39:13;98468.06;;;16.45;64.37
24154;BME280;12312;53.362;-1.518;2022-10-26T13:41:44;98464.63;;;16.35;66.12
24154;BME280;12312;53.362;-1.518;2022-10-26T13:47:03;98471.31;;;16.23;65.29
24154;BME280;12312;53.362;-1.518;2022-10-26T13:49:51;98476.66;;;16.07;65.69
24154;BME280;12312;53.362;-1.518;2022-10-26T13:52:25;98479.72;;;16.12;64.48
24154;BME280;12312;53.362;-1.518;2022-10-26T13:54:56;98486.09;;;16.19;64.68
24154;BME280;12312;53.362;-1.518;2022-10-26T13:59:59;98488.09;;;16.17;64.07
24154;BME280;12312;53.362;-1.518;2022-10-26T14:02:32;98493.31;;;16.10;64.24
24154;BME280;12312;53.362;-1.518;2022-10-26T14:05:04;98496.81;;;16.02;64.76
24154;BME280;12312;53.362;-1.518;2022-10-26T14:09:56;98492.09;;;16.04;64.22
24154;BME280;12312;53.362;-1.518;2022-10-26T14:12:26;98483.38;;;16.11;65.60
24154;BME280;12312;53.362;-1.518;2022-10-26T14:15:06;98498.19;;;16.23;64.45
24154;BME280;12312;53.362;-1.518;2022-10-26T14:17:34;98487.28;;;16.16;63.64
24154;BME280;12312;53.362;-1.518;2022-10-26T14:20:03;98493.13;;;16.20;63.65
24154;BME280;12312;53.362;-1.518;2022-10-26T14:22:31;98492.00;;;16.22;64.73
24154;BME280;12312;53.362;-1.518;2022-10-26T14:24:58;98479.72;;;16.20;64.95
24154;BME280;12312;53.362;-1.518;2022-10-26T14:27:31;98492.31;;;16.19;64.73
24154;BME280;12312;53.362;-1.518;2022-10-26T14:29:58;98488.75;;;16.11;64.89
24154;BME280;12312;53.362;-1.518;2022-10-26T14:32:27;98491.94;;;16.06;64.71
24154;BME280;12312;53.362;-1.518;2022-10-26T14:34:54;98496.06;;;15.92;65.40
24154;BME280;12312;53.362;-1.518;2022-10-26T14:37:47;98507.91;;;15.74;66.36
24154;BME280;12312;53.362;-1.518;2022-10-26T14:40:20;98510.09;;;15.70;66.77
24154;BME280;12312;53.362;-1.518;2022-10-26T14:42:50;98518.13;;;15.70;66.73
24154;BME280;12312;53.362;-1.518;2022-10-26T14:45:33;98514.75;;;15.68;67.61
24154;BME280;12312;53.362;-1.518;2022-10-26T14:48:03;98515.41;;;15.62;68.78
24154;BME280;12312;53.362;-1.518;2022-10-26T14:50:30;98520.75;;;15.62;68.42
24154;BME280;12312;53.362;-1.518;2022-10-26T14:53:15;98516.03;;;15.56;69.51
24154;BME280;12312;53.362;-1.518;2022-10-26T14:55:49;98517.72;;;15.57;69.06
24154;BME280;12312;53.362;-1.518;2022-10-26T14:58:25;98512.97;;;15.51;69.38
24154;BME280;12312;53.362;-1.518;2022-10-26T15:06:59;98534.84;;;15.39;69.20